CYUY

Rouyn-Noranda Airport

Rouyn-Noranda, , Canada
METAR CYUY 171132Z 32016G21KT 300V360 10SM -SN FEW012 BKN017 OVC030 M04/M07 A2970 RMK SC2SC3SC3 SLP077
Observed Flight Rules
Dec-17 @ 11:32 UTC (35 minutes ago) Marginal Visual Flight Rules
Wind Visibility Clouds Conditions
320° at 16 knots
 Gusting to 21 knots
10 miles
  • Few at 1,200' AGL
  • Broken at 1,700' AGL
  • Overcast at 3,000' AGL
  • Light Snow
Temperatures Readings
Current -4°C / 25°F
Dewpoint -7°C / 19°F
Humidity 80%
Altimeter 29.7" Hg
Pressure 1007.7 hPa
Elevation 301
METAR CYUY 171132Z 32016G21KT 300V360 10SM -SN FEW012 BKN017 OVC030 M04/M07 A2970 RMK SC2SC3SC3 SLP077
Observed Flight Rules
Dec-17 @ 11:32 UTC
(35 minutes ago)
MVFR
Wind Visibility
320° at 16 knots
 Gusting to 21 knots
10 miles
Clouds
  • Few at 1,200' AGL
  • Broken at 1,700' AGL
  • Overcast at 3,000' AGL
Conditions
  • Light Snow
Temperature Dewpoint
-4°C / 25°F -7°C / 19°F
Humidity Altimeter Pressure
80% 29.7" Hg 1007.7 hPa